sensor_id;sensor_type;location;lat;lon;timestamp;temperature;humidity
16102;DHT22;56411;52.964;10.540;2022-11-20T00:00:24;-1.00;99.90
16102;DHT22;56411;52.964;10.540;2022-11-20T00:02:51;-1.00;99.90
16102;DHT22;56411;52.964;10.540;2022-11-20T00:05:19;-1.00;99.90
16102;DHT22;56411;52.964;10.540;2022-11-20T00:07:48;-1.00;99.90
16102;DHT22;56411;52.964;10.540;2022-11-20T00:10:15;-0.90;99.90
16102;DHT22;56411;52.964;10.540;2022-11-20T00:12:42;-0.90;99.90
16102;DHT22;56411;52.964;10.540;2022-11-20T00:15:10;-0.90;99.90
16102;DHT22;56411;52.964;10.540;2022-11-20T00:17:37;-0.90;99.90
16102;DHT22;56411;52.964;10.540;2022-11-20T00:20:06;-0.90;99.90
16102;DHT22;56411;52.964;10.540;2022-11-20T00:22:33;-0.90;99.90
16102;DHT22;56411;52.964;10.540;2022-11-20T00:25:01;-0.90;99.90
16102;DHT22;56411;52.964;10.540;2022-11-20T00:27:28;-0.80;99.90
16102;DHT22;56411;52.964;10.540;2022-11-20T00:29:56;-0.80;99.90
16102;DHT22;56411;52.964;10.540;2022-11-20T00:32:23;-0.80;99.90
16102;DHT22;56411;52.964;10.540;2022-11-20T00:34:50;-0.80;99.90
16102;DHT22;56411;52.964;10.540;2022-11-20T00:37:18;-0.80;99.90
16102;DHT22;56411;52.964;10.540;2022-11-20T00:39:45;-0.80;99.90
16102;DHT22;56411;52.964;10.540;2022-11-20T00:42:14;-0.80;99.90
16102;DHT22;56411;52.964;10.540;2022-11-20T00:44:41;-0.80;99.90
16102;DHT22;56411;52.964;10.540;2022-11-20T00:47:08;-0.70;99.90
16102;DHT22;56411;52.964;10.540;2022-11-20T00:49:36;-0.70;99.90
16102;DHT22;56411;52.964;10.540;2022-11-20T00:52:03;-0.80;99.90
16102;DHT22;56411;52.964;10.540;2022-11-20T00:54:31;-0.80;99.90
16102;DHT22;56411;52.964;10.540;2022-11-20T00:56:58;-0.80;99.90
16102;DHT22;56411;52.964;10.540;2022-11-20T00:59:27;-0.80;99.90
16102;DHT22;56411;52.964;10.540;2022-11-20T01:01:55;-0.80;99.90
16102;DHT22;56411;52.964;10.540;2022-11-20T01:04:22;-0.80;99.90
16102;DHT22;56411;52.964;10.540;2022-11-20T01:06:49;-0.80;99.90
16102;DHT22;56411;52.964;10.540;2022-11-20T01:09:16;-0.80;99.90
16102;DHT22;56411;52.964;10.540;2022-11-20T01:11:44;-0.80;99.90
16102;DHT22;56411;52.964;10.540;2022-11-20T01:14:16;-0.80;99.90
16102;DHT22;56411;52.964;10.540;2022-11-20T01:16:47;-0.80;99.90
16102;DHT22;56411;52.964;10.540;2022-11-20T01:19:17;-0.80;99.90
16102;DHT22;56411;52.964;10.540;2022-11-20T01:21:47;-0.80;99.90
16102;DHT22;56411;52.964;10.540;2022-11-20T01:24:16;-0.80;99.90
16102;DHT22;56411;52.964;10.540;2022-11-20T01:26:45;-0.90;99.90
16102;DHT22;56411;52.964;10.540;2022-11-20T01:29:14;-0.80;99.90
16102;DHT22;56411;52.964;10.540;2022-11-20T01:31:42;-0.80;99.90
16102;DHT22;56411;52.964;10.540;2022-11-20T01:34:13;-0.80;99.90
16102;DHT22;56411;52.964;10.540;2022-11-20T01:36:41;-0.80;99.90
16102;DHT22;56411;52.964;10.540;2022-11-20T01:39:12;-0.80;99.90
16102;DHT22;56411;52.964;10.540;2022-11-20T01:41:40;-0.80;99.90
16102;DHT22;56411;52.964;10.540;2022-11-20T01:44:43;-0.80;99.90
16102;DHT22;56411;52.964;10.540;2022-11-20T01:47:14;-0.80;99.90
16102;DHT22;56411;52.964;10.540;2022-11-20T01:49:48;-0.80;99.90
16102;DHT22;56411;52.964;10.540;2022-11-20T01:52:20;-0.90;99.90
16102;DHT22;56411;52.964;10.540;2022-11-20T01:54:50;-0.90;99.90
16102;DHT22;56411;52.964;10.540;2022-11-20T01:57:20;-0.90;99.90
16102;DHT22;56411;52.964;10.540;2022-11-20T01:59:50;-0.90;99.90
16102;DHT22;56411;52.964;10.540;2022-11-20T02:02:21;-0.90;99.90
16102;DHT22;56411;52.964;10.540;2022-11-20T02:04:52;-1.00;99.90
16102;DHT22;56411;52.964;10.540;2022-11-20T02:07:22;-1.00;99.90
16102;DHT22;56411;52.964;10.540;2022-11-20T02:09:51;-1.00;99.90
16102;DHT22;56411;52.964;10.540;2022-11-20T02:12:18;-1.00;99.90
16102;DHT22;56411;52.964;10.540;2022-11-20T02:15:03;-1.00;99.90
16102;DHT22;56411;52.964;10.540;2022-11-20T02:17:31;-1.00;99.90
16102;DHT22;56411;52.964;10.540;2022-11-20T02:20:01;-1.10;99.90
16102;DHT22;56411;52.964;10.540;2022-11-20T02:22:35;-1.10;99.90
16102;DHT22;56411;52.964;10.540;2022-11-20T02:25:07;-1.10;99.90
16102;DHT22;56411;52.964;10.540;2022-11-20T02:27:35;-1.20;99.90
16102;DHT22;56411;52.964;10.540;2022-11-20T02:30:05;-1.20;99.90
16102;DHT22;56411;52.964;10.540;2022-11-20T02:32:35;-1.20;99.90
16102;DHT22;56411;52.964;10.540;2022-11-20T02:35:07;-1.30;99.90
16102;DHT22;56411;52.964;10.540;2022-11-20T02:37:37;-1.30;99.90
16102;DHT22;56411;52.964;10.540;2022-11-20T02:40:08;-1.30;99.90
16102;DHT22;56411;52.964;10.540;2022-11-20T02:42:36;-1.30;99.90
16102;DHT22;56411;52.964;10.540;2022-11-20T02:45:04;-1.40;99.90
16102;DHT22;56411;52.964;10.540;2022-11-20T02:47:31;-1.40;99.90
16102;DHT22;56411;52.964;10.540;2022-11-20T02:49:59;-1.40;99.90
16102;DHT22;56411;52.964;10.540;2022-11-20T02:52:30;-1.50;99.90
16102;DHT22;56411;52.964;10.540;2022-11-20T02:54:57;-1.50;99.90
16102;DHT22;56411;52.964;10.540;2022-11-20T02:57:26;-1.50;99.90
16102;DHT22;56411;52.964;10.540;2022-11-20T02:59:53;-1.50;99.90
16102;DHT22;56411;52.964;10.540;2022-11-20T03:02:21;-1.50;99.90
16102;DHT22;56411;52.964;10.540;2022-11-20T03:04:48;-1.50;99.90
16102;DHT22;56411;52.964;10.540;2022-11-20T03:07:16;-1.50;99.90
16102;DHT22;56411;52.964;10.540;2022-11-20T03:09:43;-1.50;99.90
16102;DHT22;56411;52.964;10.540;2022-11-20T03:12:11;-1.50;99.90
16102;DHT22;56411;52.964;10.540;2022-11-20T03:14:40;-1.50;99.90
16102;DHT22;56411;52.964;10.540;2022-11-20T03:17:07;-1.50;99.90
16102;DHT22;56411;52.964;10.540;2022-11-20T03:19:34;-1.50;99.90
16102;DHT22;56411;52.964;10.540;2022-11-20T03:22:02;-1.50;99.90
16102;DHT22;56411;52.964;10.540;2022-11-20T03:24:29;-1.40;99.90
16102;DHT22;56411;52.964;10.540;2022-11-20T03:26:56;-1.50;99.90
16102;DHT22;56411;52.964;10.540;2022-11-20T03:29:24;-1.40;99.90
16102;DHT22;56411;52.964;10.540;2022-11-20T03:31:54;-1.40;99.90
16102;DHT22;56411;52.964;10.540;2022-11-20T03:34:22;-1.40;99.90
16102;DHT22;56411;52.964;10.540;2022-11-20T03:36:49;-1.40;99.90
16102;DHT22;56411;52.964;10.540;2022-11-20T03:39:16;-1.40;99.90
16102;DHT22;56411;52.964;10.540;2022-11-20T03:41:43;-1.40;99.90
16102;DHT22;56411;52.964;10.540;2022-11-20T03:44:11;-1.40;99.90
16102;DHT22;56411;52.964;10.540;2022-11-20T03:46:39;-1.40;99.90
16102;DHT22;56411;52.964;10.540;2022-11-20T03:49:08;-1.40;99.90
16102;DHT22;56411;52.964;10.540;2022-11-20T03:51:36;-1.40;99.90
16102;DHT22;56411;52.964;10.540;2022-11-20T03:54:05;-1.40;99.90
16102;DHT22;56411;52.964;10.540;2022-11-20T03:56:35;-1.50;99.90
16102;DHT22;56411;52.964;10.540;2022-11-20T03:59:02;-1.40;99.90
16102;DHT22;56411;52.964;10.540;2022-11-20T04:01:32;-1.40;99.90
16102;DHT22;56411;52.964;10.540;2022-11-20T04:03:59;-1.40;99.90
16102;DHT22;56411;52.964;10.540;2022-11-20T04:06:29;-1.40;99.90
16102;DHT22;56411;52.964;10.540;2022-11-20T04:08:58;-1.40;99.90
16102;DHT22;56411;52.964;10.540;2022-11-20T04:11:27;-1.40;99.90
16102;DHT22;56411;52.964;10.540;2022-11-20T04:13:57;-1.40;99.90
16102;DHT22;56411;52.964;10.540;2022-11-20T04:16:26;-1.40;99.90
16102;DHT22;56411;52.964;10.540;2022-11-20T04:18:53;-1.40;99.90
16102;DHT22;56411;52.964;10.540;2022-11-20T04:21:21;-1.40;99.90
16102;DHT22;56411;52.964;10.540;2022-11-20T04:23:51;-1.40;99.90
16102;DHT22;56411;52.964;10.540;2022-11-20T04:26:19;-1.40;99.90
16102;DHT22;56411;52.964;10.540;2022-11-20T04:28:47;-1.40;99.90
16102;DHT22;56411;52.964;10.540;2022-11-20T04:31:16;-1.40;99.90
16102;DHT22;56411;52.964;10.540;2022-11-20T04:33:44;-1.30;99.90
16102;DHT22;56411;52.964;10.540;2022-11-20T04:36:13;-1.30;99.90
16102;DHT22;56411;52.964;10.540;2022-11-20T04:38:41;-1.30;99.90
16102;DHT22;56411;52.964;10.540;2022-11-20T04:41:16;-1.30;99.90
16102;DHT22;56411;52.964;10.540;2022-11-20T04:43:46;-1.30;99.90
16102;DHT22;56411;52.964;10.540;2022-11-20T04:46:14;-1.30;99.90
16102;DHT22;56411;52.964;10.540;2022-11-20T04:48:42;-1.30;99.90
16102;DHT22;56411;52.964;10.540;2022-11-20T04:51:09;-1.30;99.90
16102;DHT22;56411;52.964;10.540;2022-11-20T04:53:36;-1.20;99.90
16102;DHT22;56411;52.964;10.540;2022-11-20T04:56:05;-1.20;99.90
16102;DHT22;56411;52.964;10.540;2022-11-20T04:58:34;-1.20;99.90
16102;DHT22;56411;52.964;10.540;2022-11-20T05:01:02;-1.20;99.90
16102;DHT22;56411;52.964;10.540;2022-11-20T05:03:30;-1.20;99.90
16102;DHT22;56411;52.964;10.540;2022-11-20T05:06:00;-1.10;99.90
16102;DHT22;56411;52.964;10.540;2022-11-20T05:08:27;-1.10;99.90
16102;DHT22;56411;52.964;10.540;2022-11-20T05:10:58;-1.10;99.90
16102;DHT22;56411;52.964;10.540;2022-11-20T05:13:27;-1.10;99.90
16102;DHT22;56411;52.964;10.540;2022-11-20T05:15:55;-1.10;99.90
16102;DHT22;56411;52.964;10.540;2022-11-20T05:18:23;-1.00;99.90
16102;DHT22;56411;52.964;10.540;2022-11-20T05:20:55;-1.10;99.90
16102;DHT22;56411;52.964;10.540;2022-11-20T05:23:22;-1.00;99.90
16102;DHT22;56411;52.964;10.540;2022-11-20T05:25:52;-1.00;99.90
16102;DHT22;56411;52.964;10.540;2022-11-20T05:28:20;-1.00;99.90
16102;DHT22;56411;52.964;10.540;2022-11-20T05:30:48;-1.00;99.90
16102;DHT22;56411;52.964;10.540;2022-11-20T05:33:17;-0.90;99.90
16102;DHT22;56411;52.964;10.540;2022-11-20T05:35:45;-0.90;99.90
16102;DHT22;56411;52.964;10.540;2022-11-20T05:38:13;-0.90;99.90
16102;DHT22;56411;52.964;10.540;2022-11-20T05:40:40;-0.90;99.90
16102;DHT22;56411;52.964;10.540;2022-11-20T05:43:07;-0.90;99.90
16102;DHT22;56411;52.964;10.540;2022-11-20T05:45:34;-0.90;99.90
16102;DHT22;56411;52.964;10.540;2022-11-20T05:48:01;-0.80;99.90
16102;DHT22;56411;52.964;10.540;2022-11-20T05:50:30;-0.90;99.90
16102;DHT22;56411;52.964;10.540;2022-11-20T05:52:58;-0.90;99.90
16102;DHT22;56411;52.964;10.540;2022-11-20T05:55:26;-0.90;99.90
16102;DHT22;56411;52.964;10.540;2022-11-20T05:57:53;-0.90;99.90
16102;DHT22;56411;52.964;10.540;2022-11-20T06:00:21;-0.90;99.90
16102;DHT22;56411;52.964;10.540;2022-11-20T06:02:48;-0.90;99.90
16102;DHT22;56411;52.964;10.540;2022-11-20T06:05:16;-0.90;99.90
16102;DHT22;56411;52.964;10.540;2022-11-20T06:07:45;-0.90;99.90
16102;DHT22;56411;52.964;10.540;2022-11-20T06:10:12;-0.90;99.90
16102;DHT22;56411;52.964;10.540;2022-11-20T06:12:40;-0.80;99.90
16102;DHT22;56411;52.964;10.540;2022-11-20T06:15:08;-0.80;99.90
16102;DHT22;56411;52.964;10.540;2022-11-20T06:17:36;-0.80;99.90
16102;DHT22;56411;52.964;10.540;2022-11-20T06:20:04;-0.80;99.90
16102;DHT22;56411;52.964;10.540;2022-11-20T06:22:32;-0.80;99.90
16102;DHT22;56411;52.964;10.540;2022-11-20T06:25:01;-0.80;99.90
16102;DHT22;56411;52.964;10.540;2022-11-20T06:27:28;-0.80;99.90
16102;DHT22;56411;52.964;10.540;2022-11-20T06:29:55;-0.80;99.90
16102;DHT22;56411;52.964;10.540;2022-11-20T06:32:22;-0.80;99.90
16102;DHT22;56411;52.964;10.540;2022-11-20T06:34:50;-0.70;99.90
16102;DHT22;56411;52.964;10.540;2022-11-20T06:37:17;-0.80;99.90
16102;DHT22;56411;52.964;10.540;2022-11-20T06:39:44;-0.80;99.90
16102;DHT22;56411;52.964;10.540;2022-11-20T06:42:13;-0.80;99.90
16102;DHT22;56411;52.964;10.540;2022-11-20T06:44:40;-0.80;99.90
16102;DHT22;56411;52.964;10.540;2022-11-20T06:47:07;-0.80;99.90
16102;DHT22;56411;52.964;10.540;2022-11-20T06:49:35;-0.80;99.90
16102;DHT22;56411;52.964;10.540;2022-11-20T06:52:04;-0.80;99.90
16102;DHT22;56411;52.964;10.540;2022-11-20T06:54:31;-0.80;99.90
16102;DHT22;56411;52.964;10.540;2022-11-20T06:56:58;-0.80;99.90
16102;DHT22;56411;52.964;10.540;2022-11-20T06:59:27;-0.90;99.90
16102;DHT22;56411;52.964;10.540;2022-11-20T07:01:54;-0.90;99.90
16102;DHT22;56411;52.964;10.540;2022-11-20T07:04:21;-0.90;99.90
16102;DHT22;56411;52.964;10.540;2022-11-20T07:06:48;-0.90;99.90
16102;DHT22;56411;52.964;10.540;2022-11-20T07:09:15;-0.90;99.90
16102;DHT22;56411;52.964;10.540;2022-11-20T07:11:43;-0.90;99.90
16102;DHT22;56411;52.964;10.540;2022-11-20T07:14:10;-0.90;99.90
16102;DHT22;56411;52.964;10.540;2022-11-20T07:16:39;-0.90;99.90
16102;DHT22;56411;52.964;10.540;2022-11-20T07:19:06;-0.90;99.90
16102;DHT22;56411;52.964;10.540;2022-11-20T07:21:33;-0.90;99.90
16102;DHT22;56411;52.964;10.540;2022-11-20T07:24:00;-0.90;99.90
16102;DHT22;56411;52.964;10.540;2022-11-20T07:26:28;-0.90;99.90
16102;DHT22;56411;52.964;10.540;2022-11-20T07:28:55;-0.80;99.90
16102;DHT22;56411;52.964;10.540;2022-11-20T07:31:22;-0.80;99.90
16102;DHT22;56411;52.964;10.540;2022-11-20T07:33:54;-0.80;99.90
16102;DHT22;56411;52.964;10.540;2022-11-20T07:36:23;-0.70;99.90
16102;DHT22;56411;52.964;10.540;2022-11-20T07:38:50;-0.70;99.90
16102;DHT22;56411;52.964;10.540;2022-11-20T07:41:17;-0.70;99.90
16102;DHT22;56411;52.964;10.540;2022-11-20T07:43:44;-0.70;99.90
16102;DHT22;56411;52.964;10.540;2022-11-20T07:46:11;-0.70;99.90
16102;DHT22;56411;52.964;10.540;2022-11-20T07:48:39;-0.70;99.90
16102;DHT22;56411;52.964;10.540;2022-11-20T07:51:07;-0.70;99.90
16102;DHT22;56411;52.964;10.540;2022-11-20T07:53:34;-0.70;99.90
16102;DHT22;56411;52.964;10.540;2022-11-20T07:56:02;-0.70;99.90
16102;DHT22;56411;52.964;10.540;2022-11-20T07:58:30;-0.60;99.90
16102;DHT22;56411;52.964;10.540;2022-11-20T08:01:01;-0.60;99.90
16102;DHT22;56411;52.964;10.540;2022-11-20T08:03:29;-0.60;99.90
16102;DHT22;56411;52.964;10.540;2022-11-20T08:05:58;-0.60;99.90
16102;DHT22;56411;52.964;10.540;2022-11-20T08:08:28;-0.60;99.90
16102;DHT22;56411;52.964;10.540;2022-11-20T08:10:57;-0.50;99.90
16102;DHT22;56411;52.964;10.540;2022-11-20T08:13:44;-0.50;99.90
16102;DHT22;56411;52.964;10.540;2022-11-20T08:16:25;-0.50;99.90
16102;DHT22;56411;52.964;10.540;2022-11-20T08:18:54;-0.50;99.90
16102;DHT22;56411;52.964;10.540;2022-11-20T08:21:22;-0.40;99.90
16102;DHT22;56411;52.964;10.540;2022-11-20T08:23:51;-0.30;99.90
16102;DHT22;56411;52.964;10.540;2022-11-20T08:26:21;-0.20;99.90
16102;DHT22;56411;52.964;10.540;2022-11-20T08:28:48;-0.20;99.90
16102;DHT22;56411;52.964;10.540;2022-11-20T08:31:15;-0.20;99.90
16102;DHT22;56411;52.964;10.540;2022-11-20T08:33:42;-0.10;99.90
16102;DHT22;56411;52.964;10.540;2022-11-20T08:36:10;-0.20;99.90
16102;DHT22;56411;52.964;10.540;2022-11-20T08:38:37;-0.20;99.90
16102;DHT22;56411;52.964;10.540;2022-11-20T08:41:06;-0.20;99.90
16102;DHT22;56411;52.964;10.540;2022-11-20T08:43:54;-0.20;99.90
16102;DHT22;56411;52.964;10.540;2022-11-20T08:46:22;-0.20;99.90
16102;DHT22;56411;52.964;10.540;2022-11-20T08:48:50;-0.20;99.90
16102;DHT22;56411;52.964;10.540;2022-11-20T08:51:17;-0.20;99.90
16102;DHT22;56411;52.964;10.540;2022-11-20T08:53:45;-0.20;99.90
16102;DHT22;56411;52.964;10.540;2022-11-20T08:56:15;-0.10;99.90
16102;DHT22;56411;52.964;10.540;2022-11-20T08:58:43;-0.10;99.90
16102;DHT22;56411;52.964;10.540;2022-11-20T09:01:10;-0.10;99.90
16102;DHT22;56411;52.964;10.540;2022-11-20T09:03:37;-0.20;99.90
16102;DHT22;56411;52.964;10.540;2022-11-20T09:06:06;-0.10;99.90
16102;DHT22;56411;52.964;10.540;2022-11-20T09:08:34;-0.10;99.90
16102;DHT22;56411;52.964;10.540;2022-11-20T09:11:03;-0.10;99.90
16102;DHT22;56411;52.964;10.540;2022-11-20T09:13:32;0.00;99.90
16102;DHT22;56411;52.964;10.540;2022-11-20T09:16:01;0.00;99.90
16102;DHT22;56411;52.964;10.540;2022-11-20T09:18:29;0.00;99.90
16102;DHT22;56411;52.964;10.540;2022-11-20T09:20:57;0.00;99.90
16102;DHT22;56411;52.964;10.540;2022-11-20T09:23:26;0.00;99.90
16102;DHT22;56411;52.964;10.540;2022-11-20T09:25:54;0.10;99.90
16102;DHT22;56411;52.964;10.540;2022-11-20T09:28:25;0.10;99.90
16102;DHT22;56411;52.964;10.540;2022-11-20T09:30:53;0.20;99.90
16102;DHT22;56411;52.964;10.540;2022-11-20T09:33:20;0.20;99.90
16102;DHT22;56411;52.964;10.540;2022-11-20T09:35:47;0.20;99.90
16102;DHT22;56411;52.964;10.540;2022-11-20T09:38:15;0.20;99.90
16102;DHT22;56411;52.964;10.540;2022-11-20T09:40:47;0.20;99.90
16102;DHT22;56411;52.964;10.540;2022-11-20T09:43:18;0.10;99.90
16102;DHT22;56411;52.964;10.540;2022-11-20T09:46:04;0.10;99.90
16102;DHT22;56411;52.964;10.540;2022-11-20T09:48:56;0.10;99.90
16102;DHT22;56411;52.964;10.540;2022-11-20T09:51:35;0.10;99.90
16102;DHT22;56411;52.964;10.540;2022-11-20T09:54:15;0.10;99.90
16102;DHT22;56411;52.964;10.540;2022-11-20T09:56:46;0.20;99.90
16102;DHT22;56411;52.964;10.540;2022-11-20T09:59:27;0.20;99.90
16102;DHT22;56411;52.964;10.540;2022-11-20T10:01:59;0.30;99.90
16102;DHT22;56411;52.964;10.540;2022-11-20T10:04:30;0.30;99.90
16102;DHT22;56411;52.964;10.540;2022-11-20T10:07:04;0.30;99.90
16102;DHT22;56411;52.964;10.540;2022-11-20T10:09:35;0.20;99.90
16102;DHT22;56411;52.964;10.540;2022-11-20T10:12:14;0.30;99.90
16102;DHT22;56411;52.964;10.540;2022-11-20T10:14:52;0.40;99.90
16102;DHT22;56411;52.964;10.540;2022-11-20T10:17:33;0.50;99.90
16102;DHT22;56411;52.964;10.540;2022-11-20T10:20:15;0.70;99.90
16102;DHT22;56411;52.964;10.540;2022-11-20T10:22:52;1.10;99.90
16102;DHT22;56411;52.964;10.540;2022-11-20T10:25:28;1.50;99.90
16102;DHT22;56411;52.964;10.540;2022-11-20T10:28:25;1.60;99.90
16102;DHT22;56411;52.964;10.540;2022-11-20T10:30:57;1.50;99.90
16102;DHT22;56411;52.964;10.540;2022-11-20T10:33:31;1.70;99.90
16102;DHT22;56411;52.964;10.540;2022-11-20T10:36:05;2.00;99.90
16102;DHT22;56411;52.964;10.540;2022-11-20T10:38:37;1.90;99.90
16102;DHT22;56411;52.964;10.540;2022-11-20T10:41:06;2.00;99.90
16102;DHT22;56411;52.964;10.540;2022-11-20T10:43:56;2.10;99.90
16102;DHT22;56411;52.964;10.540;2022-11-20T10:46:25;2.20;99.90
16102;DHT22;56411;52.964;10.540;2022-11-20T10:48:58;2.10;99.90
16102;DHT22;56411;52.964;10.540;2022-11-20T10:51:33;1.80;99.90
16102;DHT22;56411;52.964;10.540;2022-11-20T10:54:16;1.50;99.90
16102;DHT22;56411;52.964;10.540;2022-11-20T10:56:46;1.30;99.90
16102;DHT22;56411;52.964;10.540;2022-11-20T10:59:41;1.30;99.90
16102;DHT22;56411;52.964;10.540;2022-11-20T11:02:18;1.30;99.90
16102;DHT22;56411;52.964;10.540;2022-11-20T11:04:48;1.20;99.90
16102;DHT22;56411;52.964;10.540;2022-11-20T11:07:20;1.30;99.90
16102;DHT22;56411;52.964;10.540;2022-11-20T11:09:50;1.30;99.90
16102;DHT22;56411;52.964;10.540;2022-11-20T11:12:19;1.10;99.90
16102;DHT22;56411;52.964;10.540;2022-11-20T11:14:48;1.10;99.90
16102;DHT22;56411;52.964;10.540;2022-11-20T11:17:21;1.10;99.90
16102;DHT22;56411;52.964;10.540;2022-11-20T11:20:01;1.20;99.90
16102;DHT22;56411;52.964;10.540;2022-11-20T11:22:30;1.10;99.90
16102;DHT22;56411;52.964;10.540;2022-11-20T11:24:58;0.90;99.90
16102;DHT22;56411;52.964;10.540;2022-11-20T11:27:25;1.00;99.90
16102;DHT22;56411;52.964;10.540;2022-11-20T11:30:03;1.10;99.90
16102;DHT22;56411;52.964;10.540;2022-11-20T11:32:30;1.20;99.90
16102;DHT22;56411;52.964;10.540;2022-11-20T11:35:04;1.10;99.90
16102;DHT22;56411;52.964;10.540;2022-11-20T11:37:34;1.10;99.90
16102;DHT22;56411;52.964;10.540;2022-11-20T11:40:03;1.20;99.90
16102;DHT22;56411;52.964;10.540;2022-11-20T11:42:30;1.20;99.90
16102;DHT22;56411;52.964;10.540;2022-11-20T11:44:59;1.20;99.90
16102;DHT22;56411;52.964;10.540;2022-11-20T11:47:33;1.20;99.90
16102;DHT22;56411;52.964;10.540;2022-11-20T11:50:20;1.20;99.90
16102;DHT22;56411;52.964;10.540;2022-11-20T11:53:01;1.30;99.90
16102;DHT22;56411;52.964;10.540;2022-11-20T11:55:33;1.40;99.90
16102;DHT22;56411;52.964;10.540;2022-11-20T11:58:17;1.40;99.90
16102;DHT22;56411;52.964;10.540;2022-11-20T12:00:54;1.40;99.90
16102;DHT22;56411;52.964;10.540;2022-11-20T12:03:27;1.30;99.90
16102;DHT22;56411;52.964;10.540;2022-11-20T12:05:59;1.40;99.90
16102;DHT22;56411;52.964;10.540;2022-11-20T12:08:32;1.40;99.90
16102;DHT22;56411;52.964;10.540;2022-11-20T12:11:06;1.40;99.90
16102;DHT22;56411;52.964;10.540;2022-11-20T12:13:46;1.50;99.90
16102;DHT22;56411;52.964;10.540;2022-11-20T12:16:18;1.60;99.90
16102;DHT22;56411;52.964;10.540;2022-11-20T12:18:49;1.50;99.90
16102;DHT22;56411;52.964;10.540;2022-11-20T12:21:28;1.50;99.90
16102;DHT22;56411;52.964;10.540;2022-11-20T12:24:11;1.50;99.90
16102;DHT22;56411;52.964;10.540;2022-11-20T12:26:54;1.40;99.90
16102;DHT22;56411;52.964;10.540;2022-11-20T12:29:30;1.40;99.90
16102;DHT22;56411;52.964;10.540;2022-11-20T12:32:19;1.40;99.90
16102;DHT22;56411;52.964;10.540;2022-11-20T12:34:58;1.30;99.90
16102;DHT22;56411;52.964;10.540;2022-11-20T12:37:38;1.50;99.90
16102;DHT22;56411;52.964;10.540;2022-11-20T12:40:28;1.60;99.90
16102;DHT22;56411;52.964;10.540;2022-11-20T12:43:09;1.50;99.90
16102;DHT22;56411;52.964;10.540;2022-11-20T12:46:11;1.50;99.90
16102;DHT22;56411;52.964;10.540;2022-11-20T12:48:47;1.70;99.90
16102;DHT22;56411;52.964;10.540;2022-11-20T12:51:54;1.90;99.90
16102;DHT22;56411;52.964;10.540;2022-11-20T12:54:45;2.20;99.90
16102;DHT22;56411;52.964;10.540;2022-11-20T12:57:18;2.40;99.90
16102;DHT22;56411;52.964;10.540;2022-11-20T13:00:06;2.20;99.90
16102;DHT22;56411;52.964;10.540;2022-11-20T13:02:41;2.10;99.90
16102;DHT22;56411;52.964;10.540;2022-11-20T13:05:19;2.00;99.90
16102;DHT22;56411;52.964;10.540;2022-11-20T13:07:51;2.00;99.90
16102;DHT22;56411;52.964;10.540;2022-11-20T13:10:25;2.00;99.90
16102;DHT22;56411;52.964;10.540;2022-11-20T13:12:58;2.30;99.90
16102;DHT22;56411;52.964;10.540;2022-11-20T13:15:43;3.00;99.90
16102;DHT22;56411;52.964;10.540;2022-11-20T13:18:15;3.10;99.90
16102;DHT22;56411;52.964;10.540;2022-11-20T13:20:44;3.10;99.90
16102;DHT22;56411;52.964;10.540;2022-11-20T13:23:22;3.20;99.90
16102;DHT22;56411;52.964;10.540;2022-11-20T13:25:51;3.90;99.90
16102;DHT22;56411;52.964;10.540;2022-11-20T13:28:30;4.30;99.90
16102;DHT22;56411;52.964;10.540;2022-11-20T13:30:58;4.00;99.90
16102;DHT22;56411;52.964;10.540;2022-11-20T13:33:30;3.50;99.90
16102;DHT22;56411;52.964;10.540;2022-11-20T13:36:00;3.00;99.90
16102;DHT22;56411;52.964;10.540;2022-11-20T13:38:28;2.70;99.90
16102;DHT22;56411;52.964;10.540;2022-11-20T13:40:58;2.50;99.90
16102;DHT22;56411;52.964;10.540;2022-11-20T13:43:47;2.30;99.90
16102;DHT22;56411;52.964;10.540;2022-11-20T13:46:14;2.10;99.90
16102;DHT22;56411;52.964;10.540;2022-11-20T13:48:43;2.00;99.90
16102;DHT22;56411;52.964;10.540;2022-11-20T13:51:20;1.80;99.90
16102;DHT22;56411;52.964;10.540;2022-11-20T13:57:08;1.70;99.90
16102;DHT22;56411;52.964;10.540;2022-11-20T13:59:46;1.60;99.90
16102;DHT22;56411;52.964;10.540;2022-11-20T14:02:18;1.40;99.90
16102;DHT22;56411;52.964;10.540;2022-11-20T14:04:49;1.20;99.90
16102;DHT22;56411;52.964;10.540;2022-11-20T14:07:19;1.10;99.90
16102;DHT22;56411;52.964;10.540;2022-11-20T14:09:51;1.00;99.90
16102;DHT22;56411;52.964;10.540;2022-11-20T14:12:21;1.00;99.90
16102;DHT22;56411;52.964;10.540;2022-11-20T14:14:51;1.30;99.90
16102;DHT22;56411;52.964;10.540;2022-11-20T14:17:20;2.00;99.90
16102;DHT22;56411;52.964;10.540;2022-11-20T14:19:48;2.50;99.90
16102;DHT22;56411;52.964;10.540;2022-11-20T14:22:19;2.40;99.90
16102;DHT22;56411;52.964;10.540;2022-11-20T14:24:46;2.10;99.90
16102;DHT22;56411;52.964;10.540;2022-11-20T14:27:15;1.90;99.90
16102;DHT22;56411;52.964;10.540;2022-11-20T14:29:46;1.80;99.90
16102;DHT22;56411;52.964;10.540;2022-11-20T14:32:16;1.60;99.90
16102;DHT22;56411;52.964;10.540;2022-11-20T14:34:45;1.40;99.90
16102;DHT22;56411;52.964;10.540;2022-11-20T14:37:17;1.20;99.90
16102;DHT22;56411;52.964;10.540;2022-11-20T14:39:49;1.10;99.90
16102;DHT22;56411;52.964;10.540;2022-11-20T14:42:19;1.00;99.90
16102;DHT22;56411;52.964;10.540;2022-11-20T14:44:49;0.80;99.90
16102;DHT22;56411;52.964;10.540;2022-11-20T14:47:19;0.70;99.90
16102;DHT22;56411;52.964;10.540;2022-11-20T14:49:48;0.50;99.90
16102;DHT22;56411;52.964;10.540;2022-11-20T14:52:17;0.40;99.90
16102;DHT22;56411;52.964;10.540;2022-11-20T14:54:46;0.30;99.90
16102;DHT22;56411;52.964;10.540;2022-11-20T14:57:25;0.20;99.90
16102;DHT22;56411;52.964;10.540;2022-11-20T15:00:17;0.10;99.90
16102;DHT22;56411;52.964;10.540;2022-11-20T15:02:47;0.00;99.90
16102;DHT22;56411;52.964;10.540;2022-11-20T15:05:15;-0.20;99.90
16102;DHT22;56411;52.964;10.540;2022-11-20T15:07:45;-0.30;99.90
16102;DHT22;56411;52.964;10.540;2022-11-20T15:10:19;-0.40;99.90
16102;DHT22;56411;52.964;10.540;2022-11-20T15:12:48;-0.50;99.90
16102;DHT22;56411;52.964;10.540;2022-11-20T15:15:21;-0.60;99.90
16102;DHT22;56411;52.964;10.540;2022-11-20T15:17:50;-0.60;99.90
16102;DHT22;56411;52.964;10.540;2022-11-20T15:20:17;-0.70;99.90
16102;DHT22;56411;52.964;10.540;2022-11-20T15:22:44;-0.70;99.90
16102;DHT22;56411;52.964;10.540;2022-11-20T15:25:13;-0.70;99.90
16102;DHT22;56411;52.964;10.540;2022-11-20T15:27:41;-0.70;99.90
16102;DHT22;56411;52.964;10.540;2022-11-20T15:30:18;-0.80;99.90
16102;DHT22;56411;52.964;10.540;2022-11-20T15:32:46;-0.80;99.90
16102;DHT22;56411;52.964;10.540;2022-11-20T15:35:17;-0.90;99.90
16102;DHT22;56411;52.964;10.540;2022-11-20T15:37:44;-1.00;99.90
16102;DHT22;56411;52.964;10.540;2022-11-20T15:40:12;-1.00;99.90
16102;DHT22;56411;52.964;10.540;2022-11-20T15:42:39;-1.10;99.90
16102;DHT22;56411;52.964;10.540;2022-11-20T15:45:30;-1.00;99.90
16102;DHT22;56411;52.964;10.540;2022-11-20T15:47:58;-1.10;99.90